sensor_id;sensor_type;location;lat;lon;timestamp;P1;P2;P0
37709;PMS5003;60223;34.854;-92.408;2023-04-01T00:01:30;13;11;
37709;PMS5003;60223;34.854;-92.408;2023-04-01T00:03:55;13;12;
37709;PMS5003;60223;34.854;-92.408;2023-04-01T00:06:22;9;9;
37709;PMS5003;60223;34.854;-92.408;2023-04-01T00:08:48;14;12;
37709;PMS5003;60223;34.854;-92.408;2023-04-01T00:11:14;11;11;
37709;PMS5003;60223;34.854;-92.408;2023-04-01T00:13:40;11;11;
37709;PMS5003;60223;34.854;-92.408;2023-04-01T00:16:05;13;12;
37709;PMS5003;60223;34.854;-92.408;2023-04-01T00:18:31;12;12;
37709;PMS5003;60223;34.854;-92.408;2023-04-01T00:20:56;10;10;
37709;PMS5003;60223;34.854;-92.408;2023-04-01T00:35:29;12;12;
37709;PMS5003;60223;34.854;-92.408;2023-04-01T00:37:54;12;12;
37709;PMS5003;60223;34.854;-92.408;2023-04-01T00:40:25;14;14;
37709;PMS5003;60223;34.854;-92.408;2023-04-01T00:42:43;14;11;
37709;PMS5003;60223;34.854;-92.408;2023-04-01T00:47:35;15;14;
37709;PMS5003;60223;34.854;-92.408;2023-04-01T00:50:01;11;10;
37709;PMS5003;60223;34.854;-92.408;2023-04-01T00:52:26;12;12;
37709;PMS5003;60223;34.854;-92.408;2023-04-01T00:54:53;11;11;
37709;PMS5003;60223;34.854;-92.408;2023-04-01T00:57:18;17;15;
37709;PMS5003;60223;34.854;-92.408;2023-04-01T00:59:45;12;12;
37709;PMS5003;60223;34.854;-92.408;2023-04-01T01:02:10;15;13;
37709;PMS5003;60223;34.854;-92.408;2023-04-01T01:04:35;11;11;
37709;PMS5003;60223;34.854;-92.408;2023-04-01T01:07:03;12;10;
37709;PMS5003;60223;34.854;-92.408;2023-04-01T01:09:29;19;17;
37709;PMS5003;60223;34.854;-92.408;2023-04-01T01:11:51;19;17;
37709;PMS5003;60223;34.854;-92.408;2023-04-01T01:14:20;14;11;
37709;PMS5003;60223;34.854;-92.408;2023-04-01T01:16:43;12;10;
37709;PMS5003;60223;34.854;-92.408;2023-04-01T01:19:09;18;18;
37709;PMS5003;60223;34.854;-92.408;2023-04-01T01:21:37;12;12;
37709;PMS5003;60223;34.854;-92.408;2023-04-01T01:26:34;13;12;
37709;PMS5003;60223;34.854;-92.408;2023-04-01T01:28:51;13;13;
37709;PMS5003;60223;34.854;-92.408;2023-04-01T01:31:14;11;11;
37709;PMS5003;60223;34.854;-92.408;2023-04-01T01:33:42;21;20;
37709;PMS5003;60223;34.854;-92.408;2023-04-01T01:36:04;13;13;
37709;PMS5003;60223;34.854;-92.408;2023-04-01T01:38:31;13;12;
37709;PMS5003;60223;34.854;-92.408;2023-04-01T01:40:53;12;11;
37709;PMS5003;60223;34.854;-92.408;2023-04-01T01:43:22;12;12;
37709;PMS5003;60223;34.854;-92.408;2023-04-01T01:45:47;13;12;
37709;PMS5003;60223;34.854;-92.408;2023-04-01T01:48:12;18;14;
37709;PMS5003;60223;34.854;-92.408;2023-04-01T01:50:37;16;14;
37709;PMS5003;60223;34.854;-92.408;2023-04-01T01:53:04;11;11;
37709;PMS5003;60223;34.854;-92.408;2023-04-01T01:55:30;13;12;
37709;PMS5003;60223;34.854;-92.408;2023-04-01T01:57:55;15;14;
37709;PMS5003;60223;34.854;-92.408;2023-04-01T02:00:20;12;10;
37709;PMS5003;60223;34.854;-92.408;2023-04-01T02:02:45;14;14;
37709;PMS5003;60223;34.854;-92.408;2023-04-01T02:05:13;13;12;
37709;PMS5003;60223;34.854;-92.408;2023-04-01T02:07:37;14;14;
37709;PMS5003;60223;34.854;-92.408;2023-04-01T02:10:03;14;13;
37709;PMS5003;60223;34.854;-92.408;2023-04-01T02:12:28;16;15;
37709;PMS5003;60223;34.854;-92.408;2023-04-01T02:14:54;12;11;
37709;PMS5003;60223;34.854;-92.408;2023-04-01T02:17:20;13;13;
37709;PMS5003;60223;34.854;-92.408;2023-04-01T02:19:45;12;12;
37709;PMS5003;60223;34.854;-92.408;2023-04-01T02:22:11;10;10;
37709;PMS5003;60223;34.854;-92.408;2023-04-01T02:24:36;12;11;
37709;PMS5003;60223;34.854;-92.408;2023-04-01T02:27:02;13;13;
37709;PMS5003;60223;34.854;-92.408;2023-04-01T02:29:26;14;13;
37709;PMS5003;60223;34.854;-92.408;2023-04-01T02:31:52;14;12;
37709;PMS5003;60223;34.854;-92.408;2023-04-01T02:34:18;18;17;
37709;PMS5003;60223;34.854;-92.408;2023-04-01T02:36:43;15;15;
37709;PMS5003;60223;34.854;-92.408;2023-04-01T02:39:08;14;13;
37709;PMS5003;60223;34.854;-92.408;2023-04-01T02:41:31;13;12;
37709;PMS5003;60223;34.854;-92.408;2023-04-01T02:43:59;11;11;
37709;PMS5003;60223;34.854;-92.408;2023-04-01T02:46:25;12;12;
37709;PMS5003;60223;34.854;-92.408;2023-04-01T02:48:49;16;14;
37709;PMS5003;60223;34.854;-92.408;2023-04-01T02:51:15;12;12;
37709;PMS5003;60223;34.854;-92.408;2023-04-01T02:53:41;9;9;
37709;PMS5003;60223;34.854;-92.408;2023-04-01T02:56:06;14;12;
37709;PMS5003;60223;34.854;-92.408;2023-04-01T02:58:32;12;11;
37709;PMS5003;60223;34.854;-92.408;2023-04-01T03:00:55;10;10;
37709;PMS5003;60223;34.854;-92.408;2023-04-01T03:03:22;10;10;
37709;PMS5003;60223;34.854;-92.408;2023-04-01T03:05:46;10;10;
37709;PMS5003;60223;34.854;-92.408;2023-04-01T03:08:14;9;9;
37709;PMS5003;60223;34.854;-92.408;2023-04-01T03:10:40;14;14;
37709;PMS5003;60223;34.854;-92.408;2023-04-01T03:13:05;11;11;
37709;PMS5003;60223;34.854;-92.408;2023-04-01T03:15:29;12;12;
37709;PMS5003;60223;34.854;-92.408;2023-04-01T03:17:57;11;11;
37709;PMS5003;60223;34.854;-92.408;2023-04-01T03:20:22;10;9;
37709;PMS5003;60223;34.854;-92.408;2023-04-01T03:22:47;14;13;
37709;PMS5003;60223;34.854;-92.408;2023-04-01T03:25:13;10;10;
37709;PMS5003;60223;34.854;-92.408;2023-04-01T03:27:39;14;12;
37709;PMS5003;60223;34.854;-92.408;2023-04-01T03:30:04;16;15;
37709;PMS5003;60223;34.854;-92.408;2023-04-01T03:32:30;10;9;
37709;PMS5003;60223;34.854;-92.408;2023-04-01T03:34:55;10;10;
37709;PMS5003;60223;34.854;-92.408;2023-04-01T03:37:21;11;11;
37709;PMS5003;60223;34.854;-92.408;2023-04-01T03:39:45;12;12;
37709;PMS5003;60223;34.854;-92.408;2023-04-01T03:42:12;9;9;
37709;PMS5003;60223;34.854;-92.408;2023-04-01T03:44:38;12;11;
37709;PMS5003;60223;34.854;-92.408;2023-04-01T03:47:03;10;10;
37709;PMS5003;60223;34.854;-92.408;2023-04-01T03:49:29;13;11;
37709;PMS5003;60223;34.854;-92.408;2023-04-01T03:51:55;11;11;
37709;PMS5003;60223;34.854;-92.408;2023-04-01T03:54:21;10;10;
37709;PMS5003;60223;34.854;-92.408;2023-04-01T03:56:46;14;14;
37709;PMS5003;60223;34.854;-92.408;2023-04-01T03:59:12;10;10;
37709;PMS5003;60223;34.854;-92.408;2023-04-01T04:01:37;14;12;
37709;PMS5003;60223;34.854;-92.408;2023-04-01T04:04:00;12;12;
37709;PMS5003;60223;34.854;-92.408;2023-04-01T04:06:28;18;15;
37709;PMS5003;60223;34.854;-92.408;2023-04-01T04:08:54;13;11;
37709;PMS5003;60223;34.854;-92.408;2023-04-01T04:11:20;11;11;
37709;PMS5003;60223;34.854;-92.408;2023-04-01T04:13:45;10;10;
37709;PMS5003;60223;34.854;-92.408;2023-04-01T04:16:10;11;10;
37709;PMS5003;60223;34.854;-92.408;2023-04-01T04:18:36;14;13;
37709;PMS5003;60223;34.854;-92.408;2023-04-01T04:20:59;16;12;
37709;PMS5003;60223;34.854;-92.408;2023-04-01T04:23:27;16;16;
37709;PMS5003;60223;34.854;-92.408;2023-04-01T04:25:54;13;11;
37709;PMS5003;60223;34.854;-92.408;2023-04-01T04:28:19;13;13;
37709;PMS5003;60223;34.854;-92.408;2023-04-01T04:30:45;10;10;
37709;PMS5003;60223;34.854;-92.408;2023-04-01T04:33:10;13;13;
37709;PMS5003;60223;34.854;-92.408;2023-04-01T04:35:34;9;9;
37709;PMS5003;60223;34.854;-92.408;2023-04-01T04:38:01;13;12;
37709;PMS5003;60223;34.854;-92.408;2023-04-01T04:40:27;8;8;
37709;PMS5003;60223;34.854;-92.408;2023-04-01T04:42:52;12;10;
37709;PMS5003;60223;34.854;-92.408;2023-04-01T04:45:16;12;12;
37709;PMS5003;60223;34.854;-92.408;2023-04-01T04:47:44;10;9;
37709;PMS5003;60223;34.854;-92.408;2023-04-01T04:50:09;13;11;
37709;PMS5003;60223;34.854;-92.408;2023-04-01T04:52:32;14;14;
37709;PMS5003;60223;34.854;-92.408;2023-04-01T04:54:59;11;9;
37709;PMS5003;60223;34.854;-92.408;2023-04-01T04:57:26;10;10;
37709;PMS5003;60223;34.854;-92.408;2023-04-01T04:59:52;10;10;
37709;PMS5003;60223;34.854;-92.408;2023-04-01T05:02:17;7;7;
37709;PMS5003;60223;34.854;-92.408;2023-04-01T05:04:42;13;12;
37709;PMS5003;60223;34.854;-92.408;2023-04-01T05:07:08;15;12;
37709;PMS5003;60223;34.854;-92.408;2023-04-01T05:09:34;12;10;
37709;PMS5003;60223;34.854;-92.408;2023-04-01T05:12:00;15;11;
37709;PMS5003;60223;34.854;-92.408;2023-04-01T05:14:25;10;10;
37709;PMS5003;60223;34.854;-92.408;2023-04-01T05:16:50;10;10;
37709;PMS5003;60223;34.854;-92.408;2023-04-01T05:19:17;9;9;
37709;PMS5003;60223;34.854;-92.408;2023-04-01T05:21:43;12;12;
37709;PMS5003;60223;34.854;-92.408;2023-04-01T05:24:08;10;10;
37709;PMS5003;60223;34.854;-92.408;2023-04-01T05:26:33;13;12;
37709;PMS5003;60223;34.854;-92.408;2023-04-01T05:28:58;12;11;
37709;PMS5003;60223;34.854;-92.408;2023-04-01T05:31:24;10;10;
37709;PMS5003;60223;34.854;-92.408;2023-04-01T05:33:50;11;11;
37709;PMS5003;60223;34.854;-92.408;2023-04-01T05:36:15;10;8;
37709;PMS5003;60223;34.854;-92.408;2023-04-01T05:38:41;11;10;
37709;PMS5003;60223;34.854;-92.408;2023-04-01T05:41:07;7;7;
37709;PMS5003;60223;34.854;-92.408;2023-04-01T05:43:31;10;10;
37709;PMS5003;60223;34.854;-92.408;2023-04-01T05:45:58;12;12;
37709;PMS5003;60223;34.854;-92.408;2023-04-01T05:48:24;8;7;
37709;PMS5003;60223;34.854;-92.408;2023-04-01T05:50:47;9;8;
37709;PMS5003;60223;34.854;-92.408;2023-04-01T05:53:15;8;7;
37709;PMS5003;60223;34.854;-92.408;2023-04-01T05:55:40;14;11;
37709;PMS5003;60223;34.854;-92.408;2023-04-01T05:58:05;11;11;
37709;PMS5003;60223;34.854;-92.408;2023-04-01T06:00:30;11;11;
37709;PMS5003;60223;34.854;-92.408;2023-04-01T06:02:58;9;9;
37709;PMS5003;60223;34.854;-92.408;2023-04-01T06:05:22;10;8;
37709;PMS5003;60223;34.854;-92.408;2023-04-01T06:07:48;10;10;
37709;PMS5003;60223;34.854;-92.408;2023-04-01T06:10:14;9;9;
37709;PMS5003;60223;34.854;-92.408;2023-04-01T06:12:41;10;10;
37709;PMS5003;60223;34.854;-92.408;2023-04-01T06:15:09;10;10;
37709;PMS5003;60223;34.854;-92.408;2023-04-01T06:17:33;14;12;
37709;PMS5003;60223;34.854;-92.408;2023-04-01T06:19:57;9;8;
37709;PMS5003;60223;34.854;-92.408;2023-04-01T06:24:51;14;13;
37709;PMS5003;60223;34.854;-92.408;2023-04-01T06:27:14;11;8;
37709;PMS5003;60223;34.854;-92.408;2023-04-01T06:29:46;11;11;
37709;PMS5003;60223;34.854;-92.408;2023-04-01T06:32:09;13;11;
37709;PMS5003;60223;34.854;-92.408;2023-04-01T06:34:34;10;10;
37709;PMS5003;60223;34.854;-92.408;2023-04-01T06:36:56;10;9;
37709;PMS5003;60223;34.854;-92.408;2023-04-01T06:39:22;10;9;
37709;PMS5003;60223;34.854;-92.408;2023-04-01T06:41:51;12;9;
37709;PMS5003;60223;34.854;-92.408;2023-04-01T06:44:14;10;9;
37709;PMS5003;60223;34.854;-92.408;2023-04-01T06:46:39;12;11;
37709;PMS5003;60223;34.854;-92.408;2023-04-01T06:49:06;10;10;
37709;PMS5003;60223;34.854;-92.408;2023-04-01T06:51:30;11;10;
37709;PMS5003;60223;34.854;-92.408;2023-04-01T06:53:54;8;7;
37709;PMS5003;60223;34.854;-92.408;2023-04-01T06:56:20;11;10;
37709;PMS5003;60223;34.854;-92.408;2023-04-01T06:58:46;12;9;
37709;PMS5003;60223;34.854;-92.408;2023-04-01T07:01:09;8;8;
37709;PMS5003;60223;34.854;-92.408;2023-04-01T07:03:36;13;9;
37709;PMS5003;60223;34.854;-92.408;2023-04-01T07:06:02;10;8;
37709;PMS5003;60223;34.854;-92.408;2023-04-01T07:08:27;14;12;
37709;PMS5003;60223;34.854;-92.408;2023-04-01T07:10:54;10;8;
37709;PMS5003;60223;34.854;-92.408;2023-04-01T07:13:20;9;9;
37709;PMS5003;60223;34.854;-92.408;2023-04-01T07:15:42;8;8;
37709;PMS5003;60223;34.854;-92.408;2023-04-01T07:18:12;9;8;
37709;PMS5003;60223;34.854;-92.408;2023-04-01T07:20:36;9;9;
37709;PMS5003;60223;34.854;-92.408;2023-04-01T07:23:02;11;9;
37709;PMS5003;60223;34.854;-92.408;2023-04-01T07:25:28;10;9;
37709;PMS5003;60223;34.854;-92.408;2023-04-01T07:27:53;9;8;
37709;PMS5003;60223;34.854;-92.408;2023-04-01T07:30:15;8;8;
37709;PMS5003;60223;34.854;-92.408;2023-04-01T07:32:45;9;7;
37709;PMS5003;60223;34.854;-92.408;2023-04-01T07:35:12;9;9;
37709;PMS5003;60223;34.854;-92.408;2023-04-01T07:37:37;7;7;
37709;PMS5003;60223;34.854;-92.408;2023-04-01T07:40:04;9;9;
37709;PMS5003;60223;34.854;-92.408;2023-04-01T07:42:28;8;8;
37709;PMS5003;60223;34.854;-92.408;2023-04-01T07:44:54;11;10;
37709;PMS5003;60223;34.854;-92.408;2023-04-01T07:47:21;9;9;
37709;PMS5003;60223;34.854;-92.408;2023-04-01T07:49:45;9;8;
37709;PMS5003;60223;34.854;-92.408;2023-04-01T07:52:11;9;9;
37709;PMS5003;60223;34.854;-92.408;2023-04-01T07:54:34;8;8;
37709;PMS5003;60223;34.854;-92.408;2023-04-01T07:56:59;8;8;
37709;PMS5003;60223;34.854;-92.408;2023-04-01T07:59:27;6;6;
37709;PMS5003;60223;34.854;-92.408;2023-04-01T08:01:53;8;8;
37709;PMS5003;60223;34.854;-92.408;2023-04-01T08:04:22;8;8;
37709;PMS5003;60223;34.854;-92.408;2023-04-01T08:06:41;9;9;
37709;PMS5003;60223;34.854;-92.408;2023-04-01T08:09:10;9;9;
37709;PMS5003;60223;34.854;-92.408;2023-04-01T08:11:39;8;8;
37709;PMS5003;60223;34.854;-92.408;2023-04-01T08:14:02;8;7;
37709;PMS5003;60223;34.854;-92.408;2023-04-01T08:16:28;7;7;
37709;PMS5003;60223;34.854;-92.408;2023-04-01T08:18:54;8;8;
37709;PMS5003;60223;34.854;-92.408;2023-04-01T08:21:16;8;8;
37709;PMS5003;60223;34.854;-92.408;2023-04-01T08:23:43;7;7;
37709;PMS5003;60223;34.854;-92.408;2023-04-01T08:26:08;12;11;
37709;PMS5003;60223;34.854;-92.408;2023-04-01T08:28:34;7;7;
37709;PMS5003;60223;34.854;-92.408;2023-04-01T08:31:00;8;8;
37709;PMS5003;60223;34.854;-92.408;2023-04-01T08:33:24;6;6;
37709;PMS5003;60223;34.854;-92.408;2023-04-01T08:35:51;10;9;
37709;PMS5003;60223;34.854;-92.408;2023-04-01T08:38:18;5;5;
37709;PMS5003;60223;34.854;-92.408;2023-04-01T08:43:09;10;10;
37709;PMS5003;60223;34.854;-92.408;2023-04-01T08:50:30;9;8;
37709;PMS5003;60223;34.854;-92.408;2023-04-01T08:52:52;8;8;
37709;PMS5003;60223;34.854;-92.408;2023-04-01T08:55:25;9;9;
37709;PMS5003;60223;34.854;-92.408;2023-04-01T08:57:44;12;12;
37709;PMS5003;60223;34.854;-92.408;2023-04-01T09:00:09;10;10;
37709;PMS5003;60223;34.854;-92.408;2023-04-01T09:02:42;8;8;
37709;PMS5003;60223;34.854;-92.408;2023-04-01T09:05:05;6;6;
37709;PMS5003;60223;34.854;-92.408;2023-04-01T09:07:29;7;7;
37709;PMS5003;60223;34.854;-92.408;2023-04-01T09:09:53;8;7;
37709;PMS5003;60223;34.854;-92.408;2023-04-01T09:12:20;6;6;
37709;PMS5003;60223;34.854;-92.408;2023-04-01T09:17:17;12;9;
37709;PMS5003;60223;34.854;-92.408;2023-04-01T09:19:34;6;6;
37709;PMS5003;60223;34.854;-92.408;2023-04-01T09:24:26;10;9;
37709;PMS5003;60223;34.854;-92.408;2023-04-01T09:26:55;12;12;
37709;PMS5003;60223;34.854;-92.408;2023-04-01T09:29:19;5;5;
37709;PMS5003;60223;34.854;-92.408;2023-04-01T09:31:46;6;6;
37709;PMS5003;60223;34.854;-92.408;2023-04-01T09:34:10;12;9;
37709;PMS5003;60223;34.854;-92.408;2023-04-01T09:36:36;6;6;
37709;PMS5003;60223;34.854;-92.408;2023-04-01T09:38:59;6;6;
37709;PMS5003;60223;34.854;-92.408;2023-04-01T09:41:24;10;8;
37709;PMS5003;60223;34.854;-92.408;2023-04-01T09:46:16;9;8;
37709;PMS5003;60223;34.854;-92.408;2023-04-01T09:51:09;6;6;
37709;PMS5003;60223;34.854;-92.408;2023-04-01T09:53:36;7;7;
37709;PMS5003;60223;34.854;-92.408;2023-04-01T09:56:05;6;6;
37709;PMS5003;60223;34.854;-92.408;2023-04-01T09:58:31;7;7;
37709;PMS5003;60223;34.854;-92.408;2023-04-01T10:10:36;8;7;
37709;PMS5003;60223;34.854;-92.408;2023-04-01T10:20:19;8;8;
37709;PMS5003;60223;34.854;-92.408;2023-04-01T10:22:47;10;7;
37709;PMS5003;60223;34.854;-92.408;2023-04-01T10:25:14;7;7;
37709;PMS5003;60223;34.854;-92.408;2023-04-01T10:27:34;9;9;
37709;PMS5003;60223;34.854;-92.408;2023-04-01T10:32:27;7;7;
37709;PMS5003;60223;34.854;-92.408;2023-04-01T10:37:16;7;6;
37709;PMS5003;60223;34.854;-92.408;2023-04-01T10:42:12;8;7;
37709;PMS5003;60223;34.854;-92.408;2023-04-01T10:47:03;8;8;
37709;PMS5003;60223;34.854;-92.408;2023-04-01T10:54:18;6;6;
37709;PMS5003;60223;34.854;-92.408;2023-04-01T10:56:40;8;7;
37709;PMS5003;60223;34.854;-92.408;2023-04-01T11:08:52;7;7;
37709;PMS5003;60223;34.854;-92.408;2023-04-01T11:11:25;8;7;
37709;PMS5003;60223;34.854;-92.408;2023-04-01T11:13:42;5;5;
37709;PMS5003;60223;34.854;-92.408;2023-04-01T11:16:12;8;8;
37709;PMS5003;60223;34.854;-92.408;2023-04-01T11:23:28;6;6;
37709;PMS5003;60223;34.854;-92.408;2023-04-01T11:25:51;8;8;
37709;PMS5003;60223;34.854;-92.408;2023-04-01T11:30:41;4;4;
37709;PMS5003;60223;34.854;-92.408;2023-04-01T11:33:05;6;6;
37709;PMS5003;60223;34.854;-92.408;2023-04-01T11:35:34;8;8;
37709;PMS5003;60223;34.854;-92.408;2023-04-01T11:37:55;6;6;
37709;PMS5003;60223;34.854;-92.408;2023-04-01T11:40:23;7;6;
37709;PMS5003;60223;34.854;-92.408;2023-04-01T11:42:49;6;6;
37709;PMS5003;60223;34.854;-92.408;2023-04-01T11:45:16;8;8;
37709;PMS5003;60223;34.854;-92.408;2023-04-01T11:47:47;6;6;
37709;PMS5003;60223;34.854;-92.408;2023-04-01T11:52:39;7;7;
37709;PMS5003;60223;34.854;-92.408;2023-04-01T11:55:01;6;5;
37709;PMS5003;60223;34.854;-92.408;2023-04-01T11:59:50;6;6;
37709;PMS5003;60223;34.854;-92.408;2023-04-01T12:02:14;7;7;
37709;PMS5003;60223;34.854;-92.408;2023-04-01T12:04:38;7;7;
37709;PMS5003;60223;34.854;-92.408;2023-04-01T12:07:08;7;7;
37709;PMS5003;60223;34.854;-92.408;2023-04-01T12:09:32;8;5;
37709;PMS5003;60223;34.854;-92.408;2023-04-01T12:11:58;7;7;
37709;PMS5003;60223;34.854;-92.408;2023-04-01T12:14:22;5;5;
37709;PMS5003;60223;34.854;-92.408;2023-04-01T12:16:50;8;8;
37709;PMS5003;60223;34.854;-92.408;2023-04-01T12:19:13;5;5;
37709;PMS5003;60223;34.854;-92.408;2023-04-01T12:21:38;10;6;
37709;PMS5003;60223;34.854;-92.408;2023-04-01T12:24:25;9;7;
37709;PMS5003;60223;34.854;-92.408;2023-04-01T12:26:35;7;6;
37709;PMS5003;60223;34.854;-92.408;2023-04-01T12:29:02;9;8;
37709;PMS5003;60223;34.854;-92.408;2023-04-01T12:31:23;7;6;
37709;PMS5003;60223;34.854;-92.408;2023-04-01T12:33:49;7;6;
37709;PMS5003;60223;34.854;-92.408;2023-04-01T12:36:15;6;6;
37709;PMS5003;60223;34.854;-92.408;2023-04-01T12:38:41;6;6;
37709;PMS5003;60223;34.854;-92.408;2023-04-01T12:41:08;8;8;
37709;PMS5003;60223;34.854;-92.408;2023-04-01T12:45:57;7;7;
37709;PMS5003;60223;34.854;-92.408;2023-04-01T12:48:24;5;5;
37709;PMS5003;60223;34.854;-92.408;2023-04-01T12:50:59;7;6;
37709;PMS5003;60223;34.854;-92.408;2023-04-01T12:53:17;4;4;
37709;PMS5003;60223;34.854;-92.408;2023-04-01T12:55:38;8;8;
37709;PMS5003;60223;34.854;-92.408;2023-04-01T12:58:08;6;6;
37709;PMS5003;60223;34.854;-92.408;2023-04-01T13:00:32;6;6;
37709;PMS5003;60223;34.854;-92.408;2023-04-01T13:02:59;8;6;
37709;PMS5003;60223;34.854;-92.408;2023-04-01T13:05:23;6;6;
37709;PMS5003;60223;34.854;-92.408;2023-04-01T13:07:49;4;4;
37709;PMS5003;60223;34.854;-92.408;2023-04-01T13:10:15;7;6;
37709;PMS5003;60223;34.854;-92.408;2023-04-01T13:12:43;8;8;
37709;PMS5003;60223;34.854;-92.408;2023-04-01T13:17:29;7;7;
37709;PMS5003;60223;34.854;-92.408;2023-04-01T13:19:56;7;7;
37709;PMS5003;60223;34.854;-92.408;2023-04-01T13:22:20;5;4;
37709;PMS5003;60223;34.854;-92.408;2023-04-01T13:24:45;6;6;
37709;PMS5003;60223;34.854;-92.408;2023-04-01T13:27:14;7;5;
37709;PMS5003;60223;34.854;-92.408;2023-04-01T13:29:37;5;5;
37709;PMS5003;60223;34.854;-92.408;2023-04-01T13:32:05;8;8;
37709;PMS5003;60223;34.854;-92.408;2023-04-01T13:34:32;7;6;
37709;PMS5003;60223;34.854;-92.408;2023-04-01T13:36:56;7;7;
37709;PMS5003;60223;34.854;-92.408;2023-04-01T13:39:22;6;6;
37709;PMS5003;60223;34.854;-92.408;2023-04-01T13:41:50;5;5;
37709;PMS5003;60223;34.854;-92.408;2023-04-01T13:44:11;6;4;
37709;PMS5003;60223;34.854;-92.408;2023-04-01T13:46:42;6;6;
37709;PMS5003;60223;34.854;-92.408;2023-04-01T13:51:28;9;6;
37709;PMS5003;60223;34.854;-92.408;2023-04-01T13:56:24;5;5;
37709;PMS5003;60223;34.854;-92.408;2023-04-01T13:58:51;5;5;
37709;PMS5003;60223;34.854;-92.408;2023-04-01T14:01:11;8;6;
37709;PMS5003;60223;34.854;-92.408;2023-04-01T14:06:10;9;7;
37709;PMS5003;60223;34.854;-92.408;2023-04-01T14:08:32;5;5;
37709;PMS5003;60223;34.854;-92.408;2023-04-01T14:10:56;7;6;
37709;PMS5003;60223;34.854;-92.408;2023-04-01T14:13:21;6;6;
37709;PMS5003;60223;34.854;-92.408;2023-04-01T14:15:54;7;7;
37709;PMS5003;60223;34.854;-92.408;2023-04-01T14:18:20;7;7;
37709;PMS5003;60223;34.854;-92.408;2023-04-01T14:20:37;7;5;
37709;PMS5003;60223;34.854;-92.408;2023-04-01T14:23:05;7;7;
37709;PMS5003;60223;34.854;-92.408;2023-04-01T14:25:31;7;7;
37709;PMS5003;60223;34.854;-92.408;2023-04-01T14:27:55;6;6;
37709;PMS5003;60223;34.854;-92.408;2023-04-01T14:30:23;7;7;
37709;PMS5003;60223;34.854;-92.408;2023-04-01T14:32:46;5;5;
37709;PMS5003;60223;34.854;-92.408;2023-04-01T14:35:16;7;6;
37709;PMS5003;60223;34.854;-92.408;2023-04-01T14:44:57;7;6;
37709;PMS5003;60223;34.854;-92.408;2023-04-01T14:47:22;6;6;
37709;PMS5003;60223;34.854;-92.408;2023-04-01T14:49:46;4;4;
37709;PMS5003;60223;34.854;-92.408;2023-04-01T14:52:11;5;5;
37709;PMS5003;60223;34.854;-92.408;2023-04-01T14:54:36;7;6;
37709;PMS5003;60223;34.854;-92.408;2023-04-01T14:57:05;7;7;
37709;PMS5003;60223;34.854;-92.408;2023-04-01T14:59:28;5;5;
37709;PMS5003;60223;34.854;-92.408;2023-04-01T15:01:55;6;6;
37709;PMS5003;60223;34.854;-92.408;2023-04-01T15:04:25;6;5;
37709;PMS5003;60223;34.854;-92.408;2023-04-01T15:06:48;7;7;
37709;PMS5003;60223;34.854;-92.408;2023-04-01T15:09:09;6;5;
37709;PMS5003;60223;34.854;-92.408;2023-04-01T15:35:53;5;5;
37709;PMS5003;60223;34.854;-92.408;2023-04-01T15:38:21;6;6;
37709;PMS5003;60223;34.854;-92.408;2023-04-01T15:40:44;5;5;
37709;PMS5003;60223;34.854;-92.408;2023-04-01T15:51:22;2;2;
37709;PMS5003;60223;34.854;-92.408;2023-04-01T15:53:49;4;4;
37709;PMS5003;60223;34.854;-92.408;2023-04-01T15:56:15;4;4;
37709;PMS5003;60223;34.854;-92.408;2023-04-01T15:58:41;4;4;
37709;PMS5003;60223;34.854;-92.408;2023-04-01T16:01:06;3;3;
37709;PMS5003;60223;34.854;-92.408;2023-04-01T16:03:32;3;3;
37709;PMS5003;60223;34.854;-92.408;2023-04-01T16:05:57;2;2;
37709;PMS5003;60223;34.854;-92.408;2023-04-01T16:08:37;2;2;
37709;PMS5003;60223;34.854;-92.408;2023-04-01T16:10:50;3;3;
37709;PMS5003;60223;34.854;-92.408;2023-04-01T16:13:16;1;1;
37709;PMS5003;60223;34.854;-92.408;2023-04-01T16:15:39;3;3;
37709;PMS5003;60223;34.854;-92.408;2023-04-01T16:18:09;2;2;
37709;PMS5003;60223;34.854;-92.408;2023-04-01T16:22:55;3;3;
37709;PMS5003;60223;34.854;-92.408;2023-04-01T16:25:24;2;2;
37709;PMS5003;60223;34.854;-92.408;2023-04-01T16:27:48;2;2;
37709;PMS5003;60223;34.854;-92.408;2023-04-01T16:32:40;1;1;
37709;PMS5003;60223;34.854;-92.408;2023-04-01T16:35:12;2;2;
37709;PMS5003;60223;34.854;-92.408;2023-04-01T16:37:31;1;1;
37709;PMS5003;60223;34.854;-92.408;2023-04-01T16:40:01;1;1;
37709;PMS5003;60223;34.854;-92.408;2023-04-01T16:42:25;0;0;
37709;PMS5003;60223;34.854;-92.408;2023-04-01T16:44:49;2;2;
37709;PMS5003;60223;34.854;-92.408;2023-04-01T16:47:11;1;1;
37709;PMS5003;60223;34.854;-92.408;2023-04-01T16:49:39;1;1;
37709;PMS5003;60223;34.854;-92.408;2023-04-01T16:54:30;1;1;
37709;PMS5003;60223;34.854;-92.408;2023-04-01T16:56:56;1;1;
37709;PMS5003;60223;34.854;-92.408;2023-04-01T16:59:21;2;2;
37709;PMS5003;60223;34.854;-92.408;2023-04-01T17:01:49;2;2;
37709;PMS5003;60223;34.854;-92.408;2023-04-01T17:04:20;0;0;
37709;PMS5003;60223;34.854;-92.408;2023-04-01T17:06:39;0;0;
37709;PMS5003;60223;34.854;-92.408;2023-04-01T17:09:10;2;2;
37709;PMS5003;60223;34.854;-92.408;2023-04-01T17:11:31;0;0;
37709;PMS5003;60223;34.854;-92.408;2023-04-01T17:13:59;1;1;
37709;PMS5003;60223;34.854;-92.408;2023-04-01T17:16:24;3;1;
37709;PMS5003;60223;34.854;-92.408;2023-04-01T17:18:47;2;2;
37709;PMS5003;60223;34.854;-92.408;2023-04-01T17:21:15;0;0;
37709;PMS5003;60223;34.854;-92.408;2023-04-01T17:23:41;2;2;
37709;PMS5003;60223;34.854;-92.408;2023-04-01T17:26:07;0;0;
37709;PMS5003;60223;34.854;-92.408;2023-04-01T17:28:33;1;0;
37709;PMS5003;60223;34.854;-92.408;2023-04-01T17:30:58;0;0;
37709;PMS5003;60223;34.854;-92.408;2023-04-01T17:33:30;2;1;
37709;PMS5003;60223;34.854;-92.408;2023-04-01T17:35:50;0;0;
37709;PMS5003;60223;34.854;-92.408;2023-04-01T17:38:16;0;0;
37709;PMS5003;60223;34.854;-92.408;2023-04-01T17:40:43;0;0;
37709;PMS5003;60223;34.854;-92.408;2023-04-01T17:43:08;0;0;
37709;PMS5003;60223;34.854;-92.408;2023-04-01T17:45:32;0;0;
37709;PMS5003;60223;34.854;-92.408;2023-04-01T17:48:00;0;0;
37709;PMS5003;60223;34.854;-92.408;2023-04-01T17:50:23;1;1;
37709;PMS5003;60223;34.854;-92.408;2023-04-01T17:52:51;0;0;
37709;PMS5003;60223;34.854;-92.408;2023-04-01T17:57:43;0;0;
37709;PMS5003;60223;34.854;-92.408;2023-04-01T18:02:33;1;1;
37709;PMS5003;60223;34.854;-92.408;2023-04-01T18:05:04;0;0;
37709;PMS5003;60223;34.854;-92.408;2023-04-01T18:07:27;0;0;
37709;PMS5003;60223;34.854;-92.408;2023-04-01T18:09:50;1;1;
37709;PMS5003;60223;34.854;-92.408;2023-04-01T18:12:14;0;0;
37709;PMS5003;60223;34.854;-92.408;2023-04-01T18:14:44;1;1;
37709;PMS5003;60223;34.854;-92.408;2023-04-01T18:19:34;0;0;
37709;PMS5003;60223;34.854;-92.408;2023-04-01T18:22:08;0;0;
37709;PMS5003;60223;34.854;-92.408;2023-04-01T18:24:22;0;0;
37709;PMS5003;60223;34.854;-92.408;2023-04-01T18:26:49;0;0;
37709;PMS5003;60223;34.854;-92.408;2023-04-01T18:29:18;0;0;